Time;durP1;ratioP1;P1;durP2;ratioP2;P2;SDS_P1;SDS_P2;PMS_P1;PMS_P2;Temp;Humidity;BMP_temperature;BMP_pressure;BME280_temperature;BME280_humidity;BME280_pressure;Samples;Min_cycle;Max_cycle;Signal;HPM_P1;HPM_P2
2022/11/25 00:02:21;;;;;;;;;;;;;;;9.64;53.57;99346.44;5130932;27;20019;-87
2022/11/25 00:04:48;;;;;;;1.38;1.00;;;;;;;9.56;54.48;99350.97;5133295;27;19907;-87
2022/11/25 00:07:13;;;;;;;1.08;1.08;;;;;;;9.63;53.95;99343.84;5132855;27;20039;-86
2022/11/25 00:09:38;;;;;;;;;;;;;;;9.72;53.38;99361.25;5133249;27;20026;-86
2022/11/25 00:12:04;;;;;;;;;;;;;;;9.73;53.07;99358.59;5133854;27;19918;-86
2022/11/25 00:14:29;;;;;;;1.85;1.75;;;;;;;9.78;53.07;99363.78;5123997;27;19922;-85
2022/11/25 00:16:54;;;;;;;;;;;;;;;9.79;53.25;99361.13;5112910;28;20028;-85
2022/11/25 00:19:20;;;;;;;1.58;1.23;;;;;;;9.72;53.36;99350.72;5112442;28;20063;-86
2022/11/25 00:21:45;;;;;;;;;;;;;;;9.76;53.25;99360.28;5112675;28;20031;-86
2022/11/25 00:24:13;;;;;;;;;;;;;;;9.66;52.96;99349.91;5119048;27;20365;-84
2022/11/25 00:26:38;;;;;;;0.50;0.50;;;;;;;9.82;52.68;99360.19;5120851;27;19920;-85
2022/11/25 00:29:05;;;;;;;;;;;;;;;9.78;52.39;99372.53;5112453;28;20438;-85
2022/11/25 00:31:33;;;;;;;0.95;0.95;;;;;;;9.79;52.93;99369.03;5111918;28;20018;-85
2022/11/25 00:33:58;;;;;;;0.38;0.38;;;;;;;9.82;52.27;99374.25;5093528;28;20386;-85
2022/11/25 00:36:25;;;;;;;;;;;;;;;10.08;52.12;99372.91;5121785;27;20027;-86
2022/11/25 00:39:02;;;;;;;0.75;0.75;;;;;;;9.90;52.61;99370.59;5132630;27;19983;-85
2022/11/25 00:46:59;;;;;;;1.00;0.93;;;;;;;9.64;52.95;99341.16;5112006;27;20130;-85
2022/11/25 00:49:24;;;;;;;;;;;;;;;9.91;52.23;99370.56;5112218;28;20114;-85
2022/11/25 00:51:50;;;;;;;1.15;0.70;;;;;;;9.73;52.50;99352.44;5111605;28;20008;-86
2022/11/25 00:54:16;;;;;;;1.23;1.17;;;;;;;9.64;53.11;99346.44;5115754;27;20529;-85
2022/11/25 00:56:41;;;;;;;;;;;;;;;10.04;52.20;99376.50;5129545;27;20104;-85
2022/11/25 00:59:07;;;;;;;0.40;0.40;;;;;;;9.90;52.48;99360.94;5111503;28;19961;-85
2022/11/25 01:01:32;;;;;;;;;;;;;;;9.96;51.45;99378.38;5111936;28;20024;-86
2022/11/25 01:03:58;;;;;;;6.15;1.55;;;;;;;9.74;52.45;99351.56;5112618;27;19972;-85
2022/11/25 01:06:23;;;;;;;;;;;;;;;9.93;51.96;99375.81;5111822;28;20027;-85
2022/11/25 01:08:49;;;;;;;1.00;0.80;;;;;;;9.88;51.92;99380.28;5111296;28;19981;-86
2022/11/25 01:11:17;;;;;;;;;;;;;;;9.88;50.57;99370.63;5111760;28;20050;-87
2022/11/25 01:13:42;;;;;;;0.90;0.90;;;;;;;9.78;51.77;99371.69;5111385;28;20377;-87
2022/11/25 01:16:09;;;;;;;;;;;;;;;9.87;50.97;99371.53;5111732;28;20030;-86
2022/11/25 01:18:35;;;;;;;1.98;0.70;;;;;;;9.76;51.02;99371.72;5093425;28;19921;-88
2022/11/25 01:21:06;;;;;;;;;;;;;;;9.82;51.03;99362.81;5113904;28;20473;-86
2022/11/25 01:23:32;;;;;;;2.42;1.10;;;;;;;9.58;51.03;99314.94;5123369;28;19955;-87
2022/11/25 01:26:00;;;;;;;;;;;;;;;9.89;51.35;99368.88;5111700;28;20056;-86
2022/11/25 01:28:25;;;;;;;0.65;0.65;;;;;;;9.78;51.07;99367.28;5111315;28;19911;-85
2022/11/25 01:30:58;;;;;;;;;;;;;;;9.78;50.75;99374.31;5112046;28;20032;-86
2022/11/25 01:33:24;;;;;;;0.63;0.63;;;;;;;9.95;50.95;99366.97;5111307;28;19912;-86
2022/11/25 01:35:49;;;;;;;0.45;0.45;;;;;;;9.71;50.86;99344.56;5111187;28;20027;-85
2022/11/25 01:38:15;;;;;;;;;;;;;;;9.83;50.75;99368.06;5111521;28;20038;-87
2022/11/25 01:40:40;;;;;;;;;;;;;;;9.77;50.74;99364.66;5111823;28;19915;-87
2022/11/25 01:43:13;;;;;;;1.07;1.07;;;;;;;9.66;50.98;99339.38;5112372;28;19915;-86
2022/11/25 01:45:38;;;;;;;0.50;0.50;;;;;;;9.70;50.72;99329.66;5110732;28;20053;-87
2022/11/25 01:48:10;;;;;;;;;;;;;;;9.99;50.98;99363.41;5111824;28;20114;-85
2022/11/25 01:50:36;;;;;;;0.52;0.52;;;;;;;9.81;50.88;99369.84;5110915;28;19919;-86
2022/11/25 01:53:03;;;;;;;;;;;;;;;9.76;51.05;99366.44;5093053;28;20040;-86
2022/11/25 01:55:33;;;;;;;0.70;0.70;;;;;;;9.73;51.68;99358.59;5124153;28;20381;-85
2022/11/25 01:58:09;;;;;;;1.08;0.98;;;;;;;9.71;51.32;99346.34;5125457;28;20417;-86
2022/11/25 02:00:36;;;;;;;;;;;;;;;9.65;51.19;99373.63;5106560;28;20127;-87
2022/11/25 02:03:02;;;;;;;0.40;0.40;;;;;;;9.62;51.85;99358.78;5110846;28;19984;-86
2022/11/25 02:05:52;;;;;;;27.60;2.05;;;;;;;9.70;51.70;99374.44;5110749;28;20059;-85
2022/11/25 02:08:22;;;;;;;0.55;0.55;;;;;;;9.58;51.60;99359.72;5111094;28;20067;-87
2022/11/25 02:10:48;;;;;;;0.40;0.40;;;;;;;9.60;51.87;99372.84;5110976;28;20081;-87
2022/11/25 02:13:14;;;;;;;0.47;0.47;;;;;;;9.61;51.85;99375.47;5110515;28;20032;-86
2022/11/25 02:15:40;;;;;;;;;;;;;;;9.68;52.83;99378.84;5110753;28;20088;-85
2022/11/25 02:18:05;;;;;;;1.05;0.95;;;;;;;9.34;52.71;99339.03;5110826;28;19976;-86
2022/11/25 02:20:31;;;;;;;;;;;;;;;9.60;52.21;99378.13;5111357;28;20031;-86
2022/11/25 02:23:02;;;;;;;1.45;1.23;;;;;;;9.68;52.57;99385.00;5114001;28;19908;-85
2022/11/25 02:25:29;;;;;;;0.43;0.43;;;;;;;9.49;52.74;99379.16;5114345;27;20044;-87
2022/11/25 02:28:09;;;;;;;1.20;1.10;;;;;;;9.52;53.31;99367.72;5096131;28;20519;-85
2022/11/25 02:30:35;;;;;;;0.93;0.88;;;;;;;9.29;52.91;99368.91;5114224;28;20023;-86
2022/11/25 02:33:01;;;;;;;0.68;0.68;;;;;;;9.48;53.76;99382.69;5114022;28;20028;-87
2022/11/25 02:35:28;;;;;;;;;;;;;;;9.57;52.75;99367.63;5114455;28;20137;-86
2022/11/25 02:37:58;;;;;;;2.42;2.13;;;;;;;9.46;53.26;99355.50;5114462;28;19912;-86
2022/11/25 02:40:26;;;;;;;0.70;0.70;;;;;;;9.38;53.15;99356.53;5132020;27;20045;-85
2022/11/25 02:42:53;;;;;;;1.05;0.73;;;;;;;9.42;52.78;99363.47;5134526;27;20027;-86
2022/11/25 02:45:25;;;;;;;0.50;0.50;;;;;;;9.53;53.33;99365.94;5134907;27;20096;-85
2022/11/25 02:47:51;;;;;;;0.47;0.47;;;;;;;9.42;52.46;99363.47;5134946;27;20023;-86
2022/11/25 02:50:17;;;;;;;0.85;0.85;;;;;;;9.43;52.54;99367.84;5134211;27;20117;-86
2022/11/25 02:52:44;;;;;;;;;;;;;;;9.59;52.82;99373.72;5135063;27;20043;-85
2022/11/25 02:55:09;;;;;;;0.93;0.93;;;;;;;9.29;53.17;99341.75;5134243;27;19911;-86
2022/11/25 02:57:35;;;;;;;;;;;;;;;9.59;52.25;99365.84;5134658;27;20046;-85
2022/11/25 03:00:00;;;;;;;0.80;0.80;;;;;;;9.67;52.34;99374.50;5134302;27;20350;-85
2022/11/25 03:02:25;;;;;;;;;;;;;;;9.54;51.87;99367.69;5134366;27;20027;-86
2022/11/25 03:04:51;;;;;;;0.30;0.30;;;;;;;9.56;51.79;99374.66;5127582;27;19916;-84
2022/11/25 03:07:16;;;;;;;;;;;;;;;9.62;51.80;99373.69;5124996;27;20027;-86
2022/11/25 03:09:42;;;;;;;0.80;0.80;;;;;;;9.63;51.25;99378.06;5115542;27;19914;-86
2022/11/25 03:12:20;;;;;;;;;;;;;;;9.65;51.45;99384.16;5134757;27;20038;-86
2022/11/25 03:14:46;;;;;;;2.28;1.77;;;;;;;9.66;51.91;99375.38;5136466;27;19915;-85
2022/11/25 03:17:13;;;;;;;0.60;0.60;;;;;;;9.58;51.53;99351.81;5135370;27;20050;-86
2022/11/25 03:19:39;;;;;;;0.88;0.88;;;;;;;9.74;51.89;99383.16;5137155;27;20027;-86
2022/11/25 03:22:04;;;;;;;;;;;;;;;9.73;51.32;99389.31;5134297;27;20061;-87
2022/11/25 03:24:30;;;;;;;1.20;1.10;;;;;;;9.59;51.80;99361.47;5121935;27;20362;-85
2022/11/25 03:26:56;;;;;;;1.38;0.95;;;;;;;9.77;51.11;99389.22;5113419;28;20114;-86
2022/11/25 03:29:21;;;;;;;;;;;;;;;9.77;51.03;99385.75;5114188;28;20115;-87
2022/11/25 03:31:46;;;;;;;;;;;;;;;9.73;51.01;99381.41;5113427;28;19915;-86
2022/11/25 03:34:12;;;;;;;0.73;0.73;;;;;;;9.71;51.08;99391.97;5121914;27;19916;-87
2022/11/25 03:36:38;;;;;;;;;;;;;;;9.74;51.79;99391.91;5133865;27;20385;-87
2022/11/25 03:39:03;;;;;;;;;;;;;;;9.71;50.83;99393.75;5134130;27;20320;-87
2022/11/25 03:41:28;;;;;;;1.42;1.33;;;;;;;9.76;51.03;99384.00;5133713;27;20396;-86
2022/11/25 03:43:54;;;;;;;;;;;;;;;9.74;51.11;99391.91;5126362;27;20413;-87
2022/11/25 03:46:19;;;;;;;;;;;;;;;9.74;51.10;99391.06;5112980;27;19915;-87
2022/11/25 03:48:45;;;;;;;;;;;;;;;9.78;50.76;99398.03;5113245;28;19908;-87
2022/11/25 03:51:10;;;;;;;;;;;;;;;9.73;51.17;99398.09;5113448;28;20016;-87
2022/11/25 03:53:35;;;;;;;;;;;;;;;9.73;50.51;99406.00;5113209;27;19915;-87
2022/11/25 03:56:00;;;;;;;;;;;;;;;9.74;50.99;99405.09;5113210;28;19912;-86
2022/11/25 03:58:27;;;;;;;;;;;;;;;9.81;50.44;99406.75;5113128;28;19912;-86
2022/11/25 04:00:53;;;;;;;;;;;;;;;9.78;50.84;99412.06;5112560;28;19912;-86
2022/11/25 04:03:18;;;;;;;;;;;;;;;9.84;50.65;99414.59;5114120;27;19916;-86
2022/11/25 04:05:43;;;;;;;;;;;;;;;9.91;50.81;99411.84;5112039;28;19994;-85
2022/11/25 04:08:09;;;;;;;;;;;;;;;9.94;50.70;99411.81;5127626;27;19915;-85
2022/11/25 04:10:34;;;;;;;;;;;;;;;9.76;50.35;99411.22;5133183;27;19918;-85
2022/11/25 04:12:59;;;;;;;;;;;;;;;9.85;50.74;99402.28;5132687;27;20427;-87
2022/11/25 04:15:24;;;;;;;;;;;;;;;9.88;50.65;99415.41;5132450;27;19964;-85
2022/11/25 04:17:50;;;;;;;;;;;;;;;9.90;50.18;99418.00;5132452;27;19922;-87
2022/11/25 04:20:15;;;;;;;;;;;;;;;9.87;50.46;99411.03;5132480;27;19962;-85
2022/11/25 04:22:40;;;;;;;;;;;;;;;9.81;50.52;99416.41;5131555;27;20308;-85
2022/11/25 04:25:06;;;;;;;;;;;;;;;9.88;50.31;99427.72;5125206;27;19922;-85
2022/11/25 04:27:31;;;;;;;;;;;;;;;9.84;50.17;99419.88;5121720;27;19919;-87
2022/11/25 04:29:57;;;;;;;;;;;;;;;9.85;49.58;99420.72;5121154;27;20994;-86
2022/11/25 04:32:22;;;;;;;;;;;;;;;9.79;49.48;99426.09;5128277;27;19919;-86
2022/11/25 04:34:48;;;;;;;;;;;;;;;9.85;48.97;99426.88;5111573;27;20057;-87
2022/11/25 04:37:13;;;;;;;;;;;;;;;9.87;49.04;99440.03;5140659;27;19915;-90
2022/11/25 04:39:38;;;;;;;;;;;;;;;9.94;48.98;99433.75;5118669;27;19915;-86
2022/11/25 04:44:47;;;;;;;;;;;;;;;9.88;49.13;99433.84;5139623;27;20419;-89
2022/11/25 04:47:12;;;;;;;;;;;;;;;9.87;49.17;99440.03;5134468;27;19911;-89
2022/11/25 04:49:38;;;;;;;;;;;;;;;9.78;49.74;99451.56;5130599;27;20337;-89
2022/11/25 04:52:03;;;;;;;;;;;;;;;9.74;49.63;99449.00;5145035;27;19915;-88
2022/11/25 04:54:28;;;;;;;;;;;;;;;9.78;50.14;99450.72;5127219;27;19916;-88
2022/11/25 04:56:54;;;;;;;;;;;;;;;9.68;50.02;99450.84;5125143;28;19915;-91
2022/11/25 05:02:03;;;;;;;;;;;;;;;9.86;49.78;99456.72;5112396;28;20032;-86
2022/11/25 05:04:28;;;;;;;;;;;;;;;9.80;49.49;99459.44;5113647;27;19939;-89
2022/11/25 05:06:54;;;;;;;;;;;;;;;9.88;49.78;99469.88;5122109;27;19925;-87
2022/11/25 05:09:19;;;;;;;;;;;;;;;9.85;49.09;99468.13;5121711;28;20389;-89
2022/11/25 05:11:44;;;;;;;;;;;;;;;9.84;50.16;99474.31;5113801;28;19934;-86
2022/11/25 05:14:09;;;;;;;;;;;;;;;9.78;49.41;99466.53;5112721;27;20040;-87
2022/11/25 05:16:35;;;;;;;;;;;;;;;9.76;49.25;99471.81;5113695;28;19919;-88
2022/11/25 05:19:00;;;;;;;;;;;;;;;9.88;49.59;99470.72;5095918;28;20262;-86
2022/11/25 05:21:26;;;;;;;;;;;;;;;10.01;49.31;99481.97;5113053;28;19919;-86
2022/11/25 05:23:52;;;;;;;;;;;;;;;9.89;49.15;99477.75;5131667;28;19921;-84
2022/11/25 05:26:18;;;;;;;;;;;;;;;9.85;48.83;99470.78;5134341;28;19911;-90
2022/11/25 05:28:43;;;;;;;;;;;;;;;9.77;49.79;99477.94;5098699;28;20022;-87
2022/11/25 05:31:08;;;;;;;;;;;;;;;9.84;49.10;99484.88;5125658;28;19942;-88
2022/11/25 05:33:35;;;;;;;;;;;;;;;9.75;49.55;99488.50;5134271;28;19919;-85
2022/11/25 05:36:01;;;;;;;;;;;;;;;9.82;48.90;99495.44;5124099;28;19916;-90
2022/11/25 05:38:26;;;;;;;;;;;;;;;9.90;49.22;99483.88;5114343;28;19912;-86
2022/11/25 05:40:52;;;;;;;;;;;;;;;9.92;48.81;99500.56;5134190;28;19915;-88
2022/11/25 05:43:18;;;;;;;;;;;;;;;9.85;48.56;99500.66;5134361;28;19907;-84
2022/11/25 05:45:43;;;;;;;;;;;;;;;9.88;48.87;99498.84;5133874;28;19915;-87
2022/11/25 05:48:09;;;;;;;;;;;;;;;9.84;48.88;99506.81;5115814;28;19916;-85
2022/11/25 05:50:35;;;;;;;;;;;;;;;9.89;49.64;99516.41;5113639;28;19978;-83
2022/11/25 05:53:00;;;;;;;;;;;;;;;9.85;49.15;99523.47;5120478;28;19912;-85
2022/11/25 05:55:26;;;;;;;;;;;;;;;9.89;49.66;99519.91;5114890;27;19930;-87
2022/11/25 05:57:51;;;;;;;;;;;;;;;9.78;49.48;99529.75;5098338;28;20403;-85
2022/11/25 06:00:16;;;;;;;;;;;;;;;9.82;49.71;99542.84;5128026;27;19961;-86
2022/11/25 06:02:42;;;;;;;;;;;;;;;9.79;49.96;99531.47;5117226;27;19916;-85
2022/11/25 06:05:07;;;;;;;;;;;;;;;9.83;50.19;99539.28;5127050;27;19957;-84
2022/11/25 06:07:33;;;;;;;;;;;;;;;9.95;49.75;99542.66;5120190;27;19967;-87
2022/11/25 06:09:58;;;;;;;;;;;;;;;9.90;50.13;99549.75;5119923;27;19922;-87
2022/11/25 06:12:24;;;;;;;;;;;;;;;9.87;50.14;99569.13;5125621;27;20366;-87
2022/11/25 06:14:50;;;;;;;;;;;;;;;9.93;50.39;99574.31;5122544;27;19915;-87
2022/11/25 06:17:15;;;;;;;;;;;;;;;9.90;50.55;99578.72;5125505;27;19919;-86
2022/11/25 06:19:40;;;;;;;;;;;;;;;9.88;49.97;99583.16;5134317;27;20380;-87
2022/11/25 06:22:07;;;;;;;;;;;;;;;9.85;51.28;99586.69;5130127;27;20396;-83
2022/11/25 06:24:32;;;;;;;;;;;;;;;9.95;50.66;99588.31;5132571;27;19915;-85
2022/11/25 06:26:59;;;;;;;;;;;;;;;9.98;50.12;99592.69;5132240;27;19916;-86
2022/11/25 06:29:24;;;;;;;;;;;;;;;9.98;50.20;99598.81;5121194;27;19915;-87
2022/11/25 06:31:49;;;;;;;;;;;;;;;10.01;51.09;99603.19;5132817;27;19968;-88
2022/11/25 06:34:15;;;;;;;;;;;;;;;10.08;50.46;99594.28;5126939;27;19955;-88
2022/11/25 06:36:40;;;;;;;;;;;;;;;10.00;49.89;99598.81;5126672;27;19915;-85
2022/11/25 06:39:05;;;;;;;;;;;;;;;10.05;50.97;99599.59;5133589;27;19921;-88
2022/11/25 06:41:31;;;;;;;;;;;;;;;10.01;49.99;99603.19;5134685;27;19925;-88
2022/11/25 06:43:56;;;;;;;;;;;;;;;10.06;50.37;99606.63;5127086;27;19919;-87
2022/11/25 06:46:21;;;;;;;;;;;;;;;10.08;50.06;99610.09;5114149;28;20309;-86
2022/11/25 06:48:47;;;;;;;;;;;;;;;10.09;49.98;99609.22;5132828;27;19916;-87
2022/11/25 06:51:13;;;;;;;;;;;;;;;10.06;50.39;99605.75;5125599;27;19915;-84
2022/11/25 06:53:38;;;;;;;;;;;;;;;10.24;50.53;99620.41;5129834;27;19915;-85
2022/11/25 06:56:12;;;;;;;;;;;;;;;10.12;49.85;99619.72;5134671;27;19919;-87
2022/11/25 06:58:38;;;;;;;;;;;;;;;10.00;49.45;99628.66;5134663;27;20399;-87
2022/11/25 07:01:08;;;;;;;;;;;;;;;10.08;49.87;99631.19;5134386;27;19912;-83
2022/11/25 07:03:34;;;;;;;;;;;;;;;10.07;49.76;99632.09;5108166;28;20431;-87
2022/11/25 07:05:59;;;;;;;;;;;;;;;10.17;49.14;99633.69;5130175;27;19946;-87
2022/11/25 07:08:25;;;;;;;;;;;;;;;10.16;49.24;99638.97;5133068;27;19915;-87
2022/11/25 07:10:51;;;;;;;;;;;;;;;10.23;49.13;99638.00;5132804;27;20687;-90
2022/11/25 07:13:16;;;;;;;;;;;;;;;10.23;49.45;99637.16;5130570;27;19998;-87
2022/11/25 07:15:42;;;;;;;;;;;;;;;10.33;48.92;99646.66;5133701;27;19911;-86
2022/11/25 07:18:07;;;;;;;;;;;;;;;10.32;49.77;99650.19;5134168;27;19916;-86
2022/11/25 07:20:32;;;;;;;;;;;;;;;10.34;49.03;99651.06;5127040;27;20006;-87
2022/11/25 07:22:57;;;;;;;;;;;;;;;10.34;48.99;99649.28;5115355;27;20407;-87
2022/11/25 07:25:23;;;;;;;;;;;;;;;10.31;49.28;99651.06;5126016;27;19964;-87
2022/11/25 07:27:48;;;;;;;;;;;;;;;10.26;49.03;99666.09;5097431;27;19998;-88
2022/11/25 07:30:14;;;;;;;;;;;;;;;10.25;49.57;99657.28;5130584;27;19973;-84
2022/11/25 07:32:39;;;;;;;;;;;;;;;10.25;49.29;99661.72;5125739;27;19916;-86
2022/11/25 07:35:05;;;;;;;;;;;;;;;10.24;50.09;99668.75;5119191;27;20334;-88
2022/11/25 07:37:30;;;;;;;;;;;;;;;10.33;50.06;99668.66;5113227;28;19912;-87
2022/11/25 07:39:55;;;;;;;;;;;;;;;10.30;50.25;99683.59;5122558;27;20303;-87
2022/11/25 07:42:21;;;;;;;;;;;;;;;10.30;49.94;99694.16;5121905;27;20380;-88
2022/11/25 07:44:47;;;;;;;;;;;;;;;10.14;50.50;99691.72;5126483;27;20444;-88
2022/11/25 07:47:12;;;;;;;;;;;;;;;10.32;50.77;99697.66;5132887;27;20006;-88
2022/11/25 07:49:37;;;;;;;;;;;;;;;10.17;50.75;99694.31;5132216;27;20011;-88
2022/11/25 07:52:03;;;;;;;;;;;;;;;10.21;50.19;99690.75;5133475;27;19968;-89
2022/11/25 07:54:28;;;;;;;;;;;;;;;10.18;50.36;99695.22;5131854;27;19950;-88
2022/11/25 07:56:54;;;;;;;;;;;;;;;10.33;50.72;99702.03;5132515;27;19911;-87
2022/11/25 07:59:20;;;;;;;;;;;;;;;10.26;50.95;99705.66;5116841;27;19973;-87
2022/11/25 08:01:48;;;;;;;;;;;;;;;10.38;50.18;99702.88;5132578;27;19957;-85
2022/11/25 08:04:14;;;;;;;;;;;;;;;10.33;50.72;99705.56;5136700;27;19919;-84
2022/11/25 08:06:44;;;;;;;;;;;;;;;10.33;51.77;99708.22;5141980;27;19917;-87
2022/11/25 08:09:10;;;;;;;;;;;;;;;10.28;50.24;99712.63;5141898;27;20373;-87
2022/11/25 08:11:36;;;;;;;;;;;;;;;10.23;49.66;99708.31;5141720;27;19922;-85
2022/11/25 08:14:01;;;;;;;;;;;;;;;10.28;51.15;99722.31;5138951;27;19975;-82
2022/11/25 08:16:28;;;;;;;;;;;;;;;10.29;49.41;99709.09;5131667;28;19912;-84
2022/11/25 08:18:54;;;;;;;;;;;;;;;10.50;49.70;99723.78;5121791;28;20014;-85
2022/11/25 08:21:19;;;;;;;;;;;;;;;10.59;49.59;99717.50;5123281;27;20056;-85
2022/11/25 08:23:48;;;;;;;;;;;;;;;10.57;49.22;99706.97;5132922;27;19922;-87
2022/11/25 08:26:15;;;;;;;;;;;;;;;10.64;49.37;99718.28;5132734;27;19915;-86
2022/11/25 08:28:41;;;;;;;;;;;;;;;10.87;48.85;99717.06;5115916;27;19921;-86
2022/11/25 08:31:08;;;;;;;;;;;;;;;11.00;48.74;99705.44;5122831;27;20311;-85
2022/11/25 08:33:34;;;;;;;;;;;;;;;11.17;49.04;99712.19;5112004;28;20014;-84
2022/11/25 08:35:59;;;;;;;;;;;;;;;11.31;48.61;99719.84;5112023;28;20006;-82
2022/11/25 08:38:25;;;;;;;;;;;;;;;11.07;48.64;99719.41;5120512;27;19942;-85
2022/11/25 08:40:50;;;;;;;;;;;;;;;11.05;48.28;99713.28;5117566;27;19915;-85
2022/11/25 08:43:16;;;;;;;;;;;;;;;10.76;48.22;99722.53;5136207;27;19965;-87
2022/11/25 08:45:41;;;;;;;;;;;;;;;10.92;47.85;99720.50;5146943;27;19924;-86
2022/11/25 08:48:07;;;;;;;;;;;;;;;10.97;47.49;99717.78;5134615;27;19919;-86
2022/11/25 08:50:32;;;;;;;;;;;;;;;10.89;47.02;99718.81;5132610;27;19912;-86
2022/11/25 08:52:59;;;;;;;;;;;;;;;10.97;47.12;99717.78;5131962;27;20357;-86
2022/11/25 08:55:27;;;;;;;;;;;;;;;11.39;46.21;99715.34;5132292;27;20435;-87
2022/11/25 08:57:53;;;;;;;;;;;;;;;11.35;45.31;99698.66;5111736;28;19966;-86
2022/11/25 09:00:19;;;;;;;;;;;;;;;11.48;45.04;99707.25;5111961;27;19950;-87
2022/11/25 09:02:44;;;;;;;;;;;;;;;11.57;44.06;99709.72;5130826;27;19915;-82
2022/11/25 09:05:11;;;;;;;;;;;;;;;11.92;44.22;99700.25;5119416;27;20453;-86
2022/11/25 09:07:37;;;;;;;;;;;;;;;12.10;43.15;99700.78;5126204;27;19919;-85
2022/11/25 09:10:02;;;;;;;;;;;;;;;12.17;42.96;99690.03;5131554;27;19915;-87
2022/11/25 09:12:28;;;;;;;;;;;;;;;11.83;42.52;99705.69;5130199;27;19962;-85
2022/11/25 09:14:53;;;;;;;;;;;;;;;11.72;42.55;99711.16;5130910;27;20017;-86
2022/11/25 09:17:20;;;;;;;;;;;;;;;12.06;42.42;99710.53;5131842;27;19919;-86
2022/11/25 09:19:45;;;;;;;;;;;;;;;11.83;41.56;99710.97;5130714;28;19907;-83
2022/11/25 09:22:11;;;;;;;;;;;;;;;12.14;40.85;99710.38;5130035;28;19915;-85
2022/11/25 09:24:36;;;;;;;;;;;;;;;12.31;40.91;99702.06;5111843;28;20262;-86
2022/11/25 09:27:01;;;;;;;;;;;;;;;12.47;40.86;99698.19;5114658;28;19916;-85
2022/11/25 09:29:28;;;;;;;;;;;;;;;12.38;40.15;99690.47;5110293;28;19970;-87
2022/11/25 09:31:54;;;;;;;;;;;;;;;12.58;40.66;99699.72;5124252;27;20013;-87
2022/11/25 09:34:19;;;;;;;;;;;;;;;12.65;39.77;99690.72;5123826;27;20020;-85
2022/11/25 09:36:45;;;;;;;;;;;;;;;12.66;40.54;99698.63;5120240;27;19923;-84
2022/11/25 09:39:10;;;;;;;;;;;;;;;12.95;39.67;99702.34;5112291;27;19996;-85
2022/11/25 09:47:29;;;;;;;;;;;;;;;13.09;40.26;99691.41;5113188;28;19965;-86
2022/11/25 09:49:54;;;;;;;;;;;;;;;12.85;39.21;99687.59;5113069;28;19951;-84
2022/11/25 09:52:32;;;;;;;;;;;;;;;12.88;39.86;99693.72;5115780;27;19916;-85
2022/11/25 09:55:05;;;;;;;;;;;;;;;12.78;38.45;99689.53;5113015;28;19918;-85
2022/11/25 09:57:40;;;;;;;;;;;;;;;12.57;39.23;99688.25;5112477;28;19947;-85
2022/11/25 10:00:14;;;;;;;;;;;;;;;12.77;39.40;99698.38;5125770;27;19919;-85
2022/11/25 10:02:41;;;;;;;;;;;;;;;13.40;39.47;99693.31;5120147;27;19959;-85
2022/11/25 10:05:07;;;;;;;;;;;;;;;13.35;37.98;99688.13;5128005;27;19919;-84
2022/11/25 10:07:38;;;;;;;;;;;;;;;13.01;38.03;99688.09;5124570;27;19922;-85
2022/11/25 10:10:04;;;;;;;;;;;;;;;12.83;38.41;99690.28;5126499;27;19911;-88
2022/11/25 10:12:33;;;;;;;;;;;;;;;12.89;38.02;99682.19;5127785;27;20009;-88
2022/11/25 10:14:59;;;;;;;;;;;;;;;12.98;38.14;99693.47;5127709;27;19926;-82
2022/11/25 10:17:34;;;;;;;;;;;;;;;12.89;38.46;99684.84;5105890;27;20316;-86
2022/11/25 10:19:59;;;;;;;;;;;;;;;12.96;38.24;99687.34;5116894;27;20388;-85
2022/11/25 10:22:26;;;;;;;;;;;;;;;13.05;37.44;99685.34;5114187;27;19911;-84
2022/11/25 10:24:53;;;;;;;;;;;;;;;13.14;38.72;99694.81;5126087;27;20368;-84
2022/11/25 10:27:40;;;;;;;;;;;;;;;13.31;38.10;99680.28;5095645;28;19962;-85
2022/11/25 10:30:13;;;;;;;;;;;;;;;13.51;37.07;99687.72;5126528;27;19915;-86
2022/11/25 10:32:47;;;;;;;;;;;;;;;13.66;36.92;99687.31;5132766;27;19915;-86
2022/11/25 10:35:33;;;;;;;;;;;;;;;13.62;36.56;99693.59;5133735;27;19912;-86
2022/11/25 10:38:00;;;;;;;;;;;;;;;13.47;37.04;99679.00;5117216;27;19915;-88
2022/11/25 10:40:26;;;;;;;;;;;;;;;13.36;37.07;99679.28;5133299;27;19915;-87
2022/11/25 10:42:51;;;;;;;;;;;;;;;13.38;36.30;99681.91;5121231;27;19922;-85
2022/11/25 10:45:19;;;;;;;;;;;;;;;13.42;36.10;99680.88;5120063;27;19918;-84
2022/11/25 10:47:57;;;;;;;;;;;;;;;13.50;36.32;99683.31;5121268;27;19924;-83
2022/11/25 10:50:35;;;;;;;;;;;;;;;13.40;36.74;99672.97;5127398;27;20340;-86
2022/11/25 10:53:19;;;;;;;;;;;;;;;13.29;35.37;99680.31;5134350;27;19914;-86
2022/11/25 10:56:09;;;;;;;;;;;;;;;13.57;37.18;99669.84;5107512;27;19951;-87
2022/11/25 10:58:37;;;;;;;;;;;;;;;13.38;35.31;99687.19;5132563;27;20457;-85
2022/11/25 11:01:02;;;;;;;;;;;;;;;13.67;36.16;99682.84;5133322;27;19915;-86
2022/11/25 11:03:27;;;;;;;;;;;;;;;13.60;37.12;99680.38;5133645;27;19916;-87
2022/11/25 11:05:53;;;;;;;;;;;;;;;13.66;36.27;99676.69;5113067;27;19923;-88
2022/11/25 11:08:20;;;;;;;;;;;;;;;13.60;36.54;99676.88;5099591;27;19922;-87
2022/11/25 11:10:46;;;;;;;;;;;;;;;13.53;36.28;99676.19;5133312;27;19911;-88
2022/11/25 11:13:21;;;;;;;;;;;;;;;13.50;36.03;99683.31;5118093;27;19923;-84
2022/11/25 11:15:46;;;;;;;;;;;;;;;13.34;35.69;99673.13;5132211;27;19915;-87
2022/11/25 11:18:18;;;;;;;;;;;;;;;13.37;36.33;99674.84;5133564;27;19968;-86
2022/11/25 11:20:45;;;;;;;;;;;;;;;13.63;36.25;99676.78;5133050;27;20391;-85
2022/11/25 11:23:12;;;;;;;;;;;;;;;13.68;36.19;99668.69;5123735;27;19923;-87
2022/11/25 11:25:39;;;;;;;;;;;;;;;13.66;36.40;99673.19;5125976;27;19919;-85
2022/11/25 11:28:24;;;;;;;;;;;;;;;13.74;35.82;99685.28;5130678;27;19918;-87
2022/11/25 11:30:57;;;;;;;;;;;;;;;13.67;36.23;99685.50;5111636;28;19915;-87
2022/11/25 11:33:26;;;;;;;;;;;;;;;13.76;36.19;99680.84;5111411;28;19911;-87
2022/11/25 11:36:10;;;;;;;;;;;;;;;13.52;36.42;99686.81;5110918;28;19919;-89
2022/11/25 11:38:40;;;;;;;;;;;;;;;13.73;36.42;99695.94;5111008;28;19919;-86
2022/11/25 11:41:20;;;;;;;;;;;;;;;13.85;35.70;99686.78;5111365;28;20319;-88
2022/11/25 11:43:46;;;;;;;;;;;;;;;13.85;35.91;99689.44;5111072;28;19912;-88
2022/11/25 11:46:23;;;;;;;;;;;;;;;13.84;35.98;99692.97;5111227;28;19926;-87
2022/11/25 11:48:53;;;;;;;;;;;;;;;13.76;36.07;99686.13;5110715;28;19912;-86
2022/11/25 11:51:28;;;;;;;;;;;;;;;13.85;36.13;99686.78;5111322;28;19918;-83
2022/11/25 11:53:57;;;;;;;;;;;;;;;13.75;36.21;99681.75;5110269;28;19984;-86
2022/11/25 11:56:39;;;;;;;;;;;;;;;13.54;37.17;99687.63;5110662;28;20010;-85
2022/11/25 11:59:05;;;;;;;;;;;;;;;13.67;36.10;99696.09;5110796;28;19915;-87
2022/11/25 12:01:30;;;;;;;;;;;;;;;13.66;36.29;99703.19;5092526;28;19917;-88
2022/11/25 12:04:02;;;;;;;;;;;;;;;13.68;37.19;99698.72;5092596;28;19919;-87
2022/11/25 12:06:30;;;;;;;;;;;;;;;13.76;37.45;99702.03;5111555;28;19912;-87
2022/11/25 12:09:07;;;;;;;;;;;;;;;13.69;35.98;99686.34;5118620;28;19907;-87
2022/11/25 12:11:36;;;;;;;;;;;;;;;13.58;37.30;99689.31;5113226;28;19907;-85
2022/11/25 12:14:05;;;;;;;;;;;;;;;13.59;37.15;99704.28;5092346;28;20355;-88
2022/11/25 12:16:35;;;;;;;;;;;;;;;13.72;36.50;99707.47;5112259;28;19912;-88
2022/11/25 12:19:18;;;;;;;;;;;;;;;13.66;35.88;99707.66;5111853;28;19915;-89
2022/11/25 12:21:59;;;;;;;;;;;;;;;13.72;36.08;99702.19;5112142;28;19911;-89
2022/11/25 12:24:27;;;;;;;;;;;;;;;13.73;36.27;99709.19;5111550;28;20377;-89
2022/11/25 12:26:57;;;;;;;;;;;;;;;13.71;36.05;99711.88;5112054;28;19912;-87
2022/11/25 12:29:27;;;;;;;;;;;;;;;13.85;35.71;99719.47;5112097;28;20337;-88
2022/11/25 12:31:57;;;;;;;;;;;;;;;13.95;36.41;99728.03;5111561;28;19911;-89
2022/11/25 12:34:30;;;;;;;;;;;;;;;13.81;36.28;99732.84;5111762;28;20389;-84
2022/11/25 12:37:01;;;;;;;;;;;;;;;13.86;36.67;99718.56;5112012;28;20006;-86
2022/11/25 12:39:38;;;;;;;;;;;;;;;13.88;36.70;99729.97;5111756;28;19915;-88
2022/11/25 12:42:11;;;;;;;;;;;;;;;13.73;36.42;99726.00;5111962;28;19912;-87
2022/11/25 12:44:51;;;;;;;;;;;;;;;13.95;36.31;99736.00;5111720;28;20394;-85
2022/11/25 12:47:16;;;;;;;;;;;;;;;13.74;37.65;99725.06;5111401;28;19912;-87
2022/11/25 12:49:43;;;;;;;;;;;;;;;13.63;36.82;99737.75;5111667;28;19912;-87
2022/11/25 12:52:25;;;;;;;;;;;;;;;13.83;36.97;99739.00;5111567;28;19968;-86
2022/11/25 12:55:09;;;;;;;;;;;;;;;13.83;36.27;99739.00;5121639;28;19912;-85
2022/11/25 12:57:43;;;;;;;;;;;;;;;13.78;36.69;99742.63;5122054;28;19960;-87